Map

Track Data

SID SEASON NUMBER BASIN SUBBASIN NAME ISO_TIME NATURE LAT LON WMO_WIND WMO_PRES WMO_AGENCY TRACK_TYPE DIST2LAND LANDFALL IFLAG USA_AGENCY USA_ATCF_ID USA_LAT USA_LON USA_RECORD USA_STATUS USA_WIND USA_PRES USA_SSHS USA_R34_NE USA_R34_SE USA_R34_SW USA_R34_NW USA_R50_NE USA_R50_SE USA_R50_SW USA_R50_NW USA_R64_NE USA_R64_SE USA_R64_SW USA_R64_NW USA_POCI USA_ROCI USA_RMW USA_EYE TOKYO_LAT TOKYO_LON TOKYO_GRADE TOKYO_WIND TOKYO_PRES TOKYO_R50_DIR TOKYO_R50_LONG TOKYO_R50_SHORT TOKYO_R30_DIR TOKYO_R30_LONG TOKYO_R30_SHORT TOKYO_LAND CMA_LAT CMA_LON CMA_CAT CMA_WIND CMA_PRES HKO_LAT HKO_LON HKO_CAT HKO_WIND HKO_PRES NEWDELHI_LAT NEWDELHI_LON NEWDELHI_GRADE NEWDELHI_WIND NEWDELHI_PRES NEWDELHI_CI NEWDELHI_DP NEWDELHI_POCI REUNION_LAT REUNION_LON REUNION_TYPE REUNION_WIND REUNION_PRES REUNION_TNUM REUNION_CI REUNION_RMW REUNION_R34_NE REUNION_R34_SE REUNION_R34_SW REUNION_R34_NW REUNION_R50_NE REUNION_R50_SE REUNION_R50_SW REUNION_R50_NW REUNION_R64_NE REUNION_R64_SE REUNION_R64_SW REUNION_R64_NW BOM_LAT BOM_LON BOM_TYPE BOM_WIND BOM_PRES BOM_TNUM BOM_CI BOM_RMW BOM_R34_NE BOM_R34_SE BOM_R34_SW BOM_R34_NW BOM_R50_NE BOM_R50_SE BOM_R50_SW BOM_R50_NW BOM_R64_NE BOM_R64_SE BOM_R64_SW BOM_R64_NW BOM_ROCI BOM_POCI BOM_EYE BOM_POS_METHOD BOM_PRES_METHOD NADI_LAT NADI_LON NADI_CAT NADI_WIND NADI_PRES WELLINGTON_LAT WELLINGTON_LON WELLINGTON_WIND WELLINGTON_PRES DS824_LAT DS824_LON DS824_STAGE DS824_WIND DS824_PRES TD9636_LAT TD9636_LON TD9636_STAGE TD9636_WIND TD9636_PRES TD9635_LAT TD9635_LON TD9635_WIND TD9635_PRES TD9635_ROCI NEUMANN_LAT NEUMANN_LON NEUMANN_CLASS NEUMANN_WIND NEUMANN_PRES MLC_LAT MLC_LON MLC_CLASS MLC_WIND MLC_PRES USA_GUST BOM_GUST BOM_GUST_PER REUNION_GUST REUNION_GUST_PER USA_SEAHGT USA_SEARAD_NE USA_SEARAD_SE USA_SEARAD_SW USA_SEARAD_NW STORM_SPEED STORM_DIR
1876336S15075 1877 25 SI MM NOT_NAMED 1876-11-30 18:00:00 NR -14.6000 74.7000 main 1901 1825 __________O___ -1 -14.6000 74.7000 7 14 238
1876336S15075 1877 25 SI MM NOT_NAMED 1876-11-30 21:00:00 NR -14.9721 74.0758 main 1825 1752 __________P___ -1 -14.9721 74.0758 7 14 238
1876336S15075 1877 25 SI MM NOT_NAMED 1876-12-01 00:00:00 NR -15.3246 73.4801 main 1752 1690 __________P___ -1 -15.3246 73.4801 7 13 239
1876336S15075 1877 25 SI MM NOT_NAMED 1876-12-01 03:00:00 NR -15.6397 72.9443 main 1680 1680 __________P___ -1 -15.6397 72.9443 7 5 240
1876336S15075 1877 25 SI MM NOT_NAMED 1876-12-01 06:00:00 NR -15.5600 73.0600 reunion main 1700 1700 _____O____O___ -1 -14.2000 75.3000 99 9.90000 -15.9000 72.5000 7 2 55
1876336S15075 1877 25 SI MM NOT_NAMED 1876-12-01 09:00:00 NR -15.5193 73.1227 main 1704 1704 _____P____P___ -1 -14.3671 75.0344 99 -16.0954 72.1668 7 1 53
1876336S15075 1877 25 SI MM NOT_NAMED 1876-12-01 12:00:00 NR -15.5129 73.1358 main 1704 1704 _____P____P___ -1 -14.5383 74.7619 99 -16.2439 71.9162 7 0 231
1876336S15075 1877 25 SI MM NOT_NAMED 1876-12-01 15:00:00 NR -15.5444 73.0916 main 1704 1677 _____P____P___ -1 -14.7182 74.4756 99 -16.3706 71.7076 7 3 237
1876336S15075 1877 25 SI MM NOT_NAMED 1876-12-01 18:00:00 NR -15.7055 72.8345 main 1666 1639 _____P____O___ -1 -14.9110 74.1689 99 -16.5000 71.5000 7 6 237
1876336S15075 1877 25 SI MM NOT_NAMED 1876-12-01 21:00:00 NR -15.8863 72.5455 main 1629 1601 _____P____P___ -1 -15.1213 73.8350 99 -16.6512 71.2561 7 7 237
1876336S15075 1877 25 SI MM NOT_NAMED 1876-12-02 00:00:00 NR -16.0827 72.2343 main 1591 1553 _____P____P___ -1 -15.3534 73.4668 99 -16.8120 71.0017 7 8 237
1876336S15075 1877 25 SI MM NOT_NAMED 1876-12-02 03:00:00 NR -16.3017 71.8896 main 1553 1506 _____P____P___ -1 -15.6116 73.0576 99 -16.9918 70.7215 7 8 236
1876336S15075 1877 25 SI MM NOT_NAMED 1876-12-02 06:00:00 NR -16.5500 71.5000 reunion main 1506 1455 _____O____O___ -1 -15.9000 72.6000 99 9.90000 -17.2000 70.4000 7 10 237
1876336S15075 1877 25 SI MM NOT_NAMED 1876-12-02 09:00:00 NR -16.8381 71.0439 main 1445 1394 _____P____P___ -1 -16.2215 72.0894 99 -17.4548 69.9983 7 11 237
1876336S15075 1877 25 SI MM NOT_NAMED 1876-12-02 12:00:00 NR -17.1545 70.5445 main 1381 1330 _____P____P___ -1 -16.5733 71.5308 99 -17.7356 69.5582 7 12 236
1876336S15075 1877 25 SI MM NOT_NAMED 1876-12-02 15:00:00 NR -17.4875 70.0229 main 1320 1260 _____P____P___ -1 -16.9514 70.9319 99 -18.0235 69.1139 7 12 236
1876336S15075 1877 25 SI MM NOT_NAMED 1876-12-02 18:00:00 NR -17.8259 69.5001 main 1260 1211 _____P____O___ -1 -17.3518 70.3002 99 -18.3000 68.7000 7 11 235
1876336S15075 1877 25 SI MM NOT_NAMED 1876-12-02 21:00:00 NR -18.1360 69.0331 main 1201 1152 _____P____P___ -1 -17.7706 69.6434 99 -18.5015 68.4229 7 11 235
1876336S15075 1877 25 SI MM NOT_NAMED 1876-12-03 00:00:00 NR -18.4497 68.5705 main 1152 1092 _____P____P___ -1 -18.2040 68.9693 99 -18.6954 68.1717 7 11 234
1876336S15075 1877 25 SI MM NOT_NAMED 1876-12-03 03:00:00 NR -18.7825 68.0852 main 1092 1034 _____P____P___ -1 -18.6483 68.2855 99 -18.9168 67.8848 7 12 234
1876336S15075 1877 25 SI MM NOT_NAMED 1876-12-03 06:00:00 NR -19.1500 67.5500 reunion main 1034 964 _____O____O___ -1 -19.1000 67.6000 99 9.90000 -19.2000 67.5000 7 14 234
1876336S15075 1877 25 SI MM NOT_NAMED 1876-12-03 09:00:00 NR -19.5775 66.9146 main 954 887 _____P____P___ -1 -19.5729 66.8957 99 -19.5821 66.9335 7 15 235
1876336S15075 1877 25 SI MM NOT_NAMED 1876-12-03 12:00:00 NR -20.0434 66.2199 main 877 802 _____P____P___ -1 -20.0606 66.1764 99 -20.0261 66.2633 7 16 234
1876336S15075 1877 25 SI MM NOT_NAMED 1876-12-03 15:00:00 NR -20.5306 65.4948 main 802 732 _____P____P___ -1 -20.5542 65.4535 99 -20.5069 65.5362 7 17 234
1876336S15075 1877 25 SI MM NOT_NAMED 1876-12-03 18:00:00 NR -21.0223 64.7691 main 732 667 _____P____O___ -1 -21.0446 64.7383 99 -21.0000 64.8000 7 17 234
1876336S15075 1877 25 SI MM NOT_NAMED 1876-12-03 21:00:00 NR -21.5045 64.0681 main 667 607 _____P____P___ -1 -21.5230 64.0429 99 -21.4860 64.0932 7 16 233
1876336S15075 1877 25 SI MM NOT_NAMED 1876-12-04 00:00:00 NR -21.9731 63.3947 main 610 568 _____P____P___ -1 -21.9806 63.3796 99 -21.9632 63.4149 7 15 233
1876336S15075 1877 25 SI MM NOT_NAMED 1876-12-04 03:00:00 NR -22.4173 62.7587 main 568 531 _____P____P___ -1 -22.4090 62.7610 99 -22.4339 62.7541 7 14 233
1876336S15075 1877 25 SI MM NOT_NAMED 1876-12-04 06:00:00 NR -22.8200 62.1800 reunion main 531 504 _____O____O___ -1 -22.8000 62.2000 99 9.90000 -22.9000 62.1000 7 12 233
1876336S15075 1877 25 SI MM NOT_NAMED 1876-12-04 09:00:00 NR -23.1477 61.7061 main 504 492 _____P________ -1 -23.1477 61.7061 99 7 11 233
1876336S15075 1877 25 SI MM NOT_NAMED 1876-12-04 12:00:00 NR -23.4559 61.2744 main 500 485 _____P________ -1 -23.4559 61.2744 99 7 9 232
1876336S15075 1877 25 SI MM NOT_NAMED 1876-12-04 15:00:00 NR -23.7306 60.8965 main 486 481 _____P________ -1 -23.7306 60.8965 99 7 8 231
1876336S15075 1877 25 SI MM NOT_NAMED 1876-12-04 18:00:00 NR -23.9776 60.5634 main 492 483 _____P________ -1 -23.9776 60.5634 99 7 231
1876336S15075 1877 25 SI MM NOT_NAMED 1876-12-04 21:00:00 NR -24.2025 60.2663 main 492 486 _____P________ -1 -24.2025 60.2663 99 7 230
1876336S15075 1877 25 SI MM NOT_NAMED 1876-12-05 00:00:00 NR -24.4109 59.9962 main 495 495 _____P________ -1 -24.4109 59.9962 99 6 230
1876336S15075 1877 25 SI MM NOT_NAMED 1876-12-05 03:00:00 NR -24.6083 59.7438 main 502 502 _____P________ -1 -24.6083 59.7438 99 6 229
1876336S15075 1877 25 SI MM NOT_NAMED 1876-12-05 06:00:00 NR -24.8000 59.5000 reunion main 514 _____O________ -1 -24.8000 59.5000 99 9.90000 6 229

About IBTrACS Database

This database is a web-friendly format of International Best Track Archive for Climate Stewardship (IBTrACS), a global best track data archive curated by NOAA dating back to 1842.

Updated: 2021-11-26